createdAt,value
2022-09-28T00:02:11.795Z,100.00
2022-09-28T00:05:03.368Z,100.00
2022-09-28T00:07:54.565Z,100.00
2022-09-28T00:10:56.116Z,100.00
2022-09-28T00:13:50.916Z,100.00
2022-09-28T00:16:44.670Z,100.00
2022-09-28T00:19:35.871Z,100.00
2022-09-28T00:22:27.138Z,100.00
2022-09-28T00:25:21.939Z,100.00
2022-09-28T00:28:14.322Z,100.00
2022-09-28T00:31:05.938Z,100.00
2022-09-28T00:33:57.688Z,100.00
2022-09-28T00:36:49.616Z,100.00
2022-09-28T00:39:42.179Z,100.00
2022-09-28T00:42:33.489Z,100.00
2022-09-28T00:45:27.745Z,100.00
2022-09-28T00:48:19.574Z,100.00
2022-09-28T00:51:14.022Z,100.00
2022-09-28T00:54:08.717Z,100.00
2022-09-28T00:57:02.872Z,100.00
2022-09-28T00:59:54.469Z,100.00
2022-09-28T01:02:49.118Z,100.00
2022-09-28T01:05:41.750Z,100.00
2022-09-28T01:08:35.206Z,100.00
2022-09-28T01:11:27.997Z,100.00
2022-09-28T01:14:20.703Z,100.00
2022-09-28T01:17:15.750Z,100.00
2022-09-28T01:20:28.606Z,100.00
2022-09-28T01:23:55.385Z,100.00
2022-09-28T01:26:57.541Z,100.00
2022-09-28T01:29:55.977Z,100.00
2022-09-28T01:32:54.726Z,100.00
2022-09-28T01:35:52.636Z,100.00
2022-09-28T01:38:48.156Z,100.00
2022-09-28T01:41:42.682Z,100.00
2022-09-28T01:44:41.378Z,100.00
2022-09-28T01:47:36.374Z,100.00
2022-09-28T01:50:31.857Z,100.00
2022-09-28T01:53:29.778Z,100.00
2022-09-28T01:56:26.971Z,100.00
2022-09-28T01:59:20.555Z,100.00
2022-09-28T02:02:18.643Z,100.00
2022-09-28T02:05:15.545Z,100.00
2022-09-28T02:08:12.003Z,100.00
2022-09-28T02:11:10.305Z,100.00
2022-09-28T02:14:05.632Z,100.00
2022-09-28T02:16:58.553Z,100.00
2022-09-28T02:19:51.370Z,100.00
2022-09-28T02:22:46.785Z,100.00
2022-09-28T02:25:44.988Z,100.00
2022-09-28T02:28:36.189Z,100.00
2022-09-28T02:31:28.737Z,100.00
2022-09-28T02:34:20.297Z,100.00
2022-09-28T02:37:13.449Z,100.00
2022-09-28T02:40:10.610Z,100.00
2022-09-28T02:43:10.280Z,100.00
2022-09-28T02:46:09.780Z,100.00
2022-09-28T02:49:21.684Z,100.00
2022-09-28T02:52:32.492Z,100.00
2022-09-28T02:55:36.218Z,100.00
2022-09-28T02:58:40.248Z,100.00
2022-09-28T03:01:38.413Z,100.00
2022-09-28T03:04:38.618Z,100.00
2022-09-28T03:07:36.466Z,100.00
2022-09-28T03:10:38.253Z,100.00
2022-09-28T03:13:30.835Z,100.00
2022-09-28T03:16:22.228Z,100.00
2022-09-28T03:19:14.094Z,100.00
2022-09-28T03:22:05.585Z,100.00
2022-09-28T03:24:58.199Z,100.00
2022-09-28T03:27:49.393Z,100.00
2022-09-28T03:30:41.657Z,100.00
2022-09-28T03:33:33.131Z,100.00
2022-09-28T03:36:24.607Z,100.00
2022-09-28T03:39:15.730Z,100.00
2022-09-28T03:42:08.562Z,100.00
2022-09-28T03:44:59.634Z,100.00
2022-09-28T03:47:51.087Z,100.00
2022-09-28T03:50:42.566Z,100.00
2022-09-28T03:53:34.749Z,100.00
2022-09-28T03:56:25.964Z,100.00
2022-09-28T03:59:19.044Z,100.00
2022-09-28T04:02:10.722Z,100.00
2022-09-28T04:05:02.085Z,100.00
2022-09-28T04:07:57.639Z,100.00
2022-09-28T04:10:49.008Z,100.00
2022-09-28T04:13:40.650Z,100.00
2022-09-28T04:16:33.468Z,100.00
2022-09-28T04:19:25.237Z,100.00
2022-09-28T04:22:16.351Z,100.00
2022-09-28T04:25:08.022Z,100.00
2022-09-28T04:28:16.824Z,100.00
2022-09-28T04:31:11.162Z,100.00
2022-09-28T04:34:03.751Z,100.00
2022-09-28T04:36:55.141Z,100.00
2022-09-28T04:39:48.540Z,100.00
2022-09-28T04:42:40.299Z,100.00
2022-09-28T04:45:32.081Z,100.00
2022-09-28T04:48:23.950Z,100.00
2022-09-28T04:51:16.919Z,100.00
2022-09-28T04:54:08.454Z,100.00
2022-09-28T04:57:00.288Z,100.00
2022-09-28T04:59:51.807Z,100.00
2022-09-28T05:02:43.455Z,100.00
2022-09-28T05:05:34.862Z,100.00
2022-09-28T05:08:28.196Z,100.00
2022-09-28T05:11:21.327Z,100.00
2022-09-28T05:14:13.121Z,100.00
2022-09-28T05:17:04.470Z,100.00
2022-09-28T05:19:56.005Z,100.00
2022-09-28T05:22:47.699Z,100.00
2022-09-28T05:25:41.064Z,100.00
2022-09-28T05:28:34.218Z,100.00
2022-09-28T05:31:27.164Z,100.00
2022-09-28T05:34:18.584Z,100.00
2022-09-28T05:37:10.059Z,100.00
2022-09-28T05:40:01.609Z,100.00
2022-09-28T05:42:54.566Z,100.00
2022-09-28T05:45:45.948Z,100.00
2022-09-28T05:48:37.623Z,100.00
2022-09-28T05:51:28.999Z,100.00
2022-09-28T05:54:20.639Z,100.00
2022-09-28T05:57:12.015Z,100.00
2022-09-28T06:00:06.018Z,100.00
2022-09-28T06:02:58.701Z,100.00
2022-09-28T06:05:50.395Z,100.00
2022-09-28T06:08:43.654Z,100.00
2022-09-28T06:11:34.882Z,100.00
2022-09-28T06:14:26.847Z,100.00
2022-09-28T06:17:19.486Z,100.00
2022-09-28T06:20:12.098Z,100.00
2022-09-28T06:23:16.175Z,100.00
2022-09-28T06:26:08.024Z,100.00
2022-09-28T06:29:00.455Z,100.00
2022-09-28T06:31:54.324Z,100.00
2022-09-28T06:34:47.183Z,100.00
2022-09-28T06:37:38.478Z,100.00
2022-09-28T06:40:30.176Z,100.00
2022-09-28T06:43:21.598Z,100.00
2022-09-28T06:46:14.067Z,100.00
2022-09-28T06:49:06.229Z,100.00
2022-09-28T06:51:59.085Z,100.00
2022-09-28T06:54:50.583Z,100.00
2022-09-28T06:57:41.995Z,100.00
2022-09-28T07:00:36.215Z,100.00
2022-09-28T07:03:28.142Z,100.00
2022-09-28T07:06:20.611Z,100.00
2022-09-28T07:09:30.293Z,100.00
2022-09-28T07:12:24.544Z,100.00
2022-09-28T07:15:15.786Z,100.00
2022-09-28T07:18:08.738Z,100.00
2022-09-28T07:21:02.760Z,100.00
2022-09-28T07:23:54.502Z,100.00
2022-09-28T07:26:47.186Z,100.00
2022-09-28T07:29:38.598Z,100.00
2022-09-28T07:35:22.942Z,100.00
2022-09-28T07:38:14.150Z,100.00
2022-09-28T07:41:17.077Z,100.00
2022-09-28T07:44:09.539Z,100.00
2022-09-28T07:47:02.535Z,100.00
2022-09-28T07:49:56.363Z,100.00
2022-09-28T07:52:47.903Z,100.00
2022-09-28T07:55:39.414Z,100.00
2022-09-28T07:58:32.790Z,100.00
2022-09-28T08:01:25.966Z,100.00
2022-09-28T08:04:17.174Z,100.00
2022-09-28T08:07:10.692Z,100.00
2022-09-28T08:10:02.146Z,100.00
2022-09-28T08:12:59.144Z,100.00
2022-09-28T08:15:54.139Z,100.00
2022-09-28T08:18:49.503Z,100.00
2022-09-28T08:21:45.862Z,100.00
2022-09-28T08:24:38.761Z,100.00
2022-09-28T08:27:30.321Z,100.00
2022-09-28T08:30:21.821Z,100.00
2022-09-28T08:33:14.088Z,100.00
2022-09-28T08:36:07.216Z,100.00
2022-09-28T08:38:58.513Z,100.00
2022-09-28T08:41:55.683Z,100.00
2022-09-28T08:44:51.607Z,100.00
2022-09-28T08:48:09.704Z,100.00
2022-09-28T08:51:06.359Z,100.00
2022-09-28T08:54:08.061Z,100.00
2022-09-28T08:57:06.325Z,100.00
2022-09-28T08:59:59.896Z,100.00
2022-09-28T09:02:51.077Z,100.00
2022-09-28T09:05:52.902Z,100.00
2022-09-28T09:08:57.303Z,100.00
2022-09-28T09:12:04.081Z,100.00
2022-09-28T09:15:28.385Z,100.00
2022-09-28T09:18:28.848Z,100.00
2022-09-28T09:21:34.835Z,100.00
2022-09-28T09:24:28.195Z,100.00
2022-09-28T09:27:37.941Z,100.00
2022-09-28T09:30:39.569Z,100.00
2022-09-28T09:33:46.256Z,100.00
2022-09-28T09:36:51.990Z,100.00
2022-09-28T09:39:58.886Z,100.00
2022-09-28T09:43:05.895Z,100.00
2022-09-28T09:46:12.682Z,100.00
2022-09-28T09:49:09.733Z,100.00
2022-09-28T09:52:08.074Z,100.00
2022-09-28T09:55:03.528Z,100.00
2022-09-28T09:58:04.772Z,100.00
2022-09-28T10:01:05.490Z,100.00
2022-09-28T10:03:58.968Z,100.00
2022-09-28T10:06:53.880Z,100.00
2022-09-28T10:09:47.362Z,100.00
2022-09-28T10:12:39.175Z,100.00
2022-09-28T10:15:34.167Z,100.00
2022-09-28T10:18:25.635Z,100.00
2022-09-28T10:21:19.356Z,100.00
2022-09-28T10:24:18.411Z,100.00
2022-09-28T10:27:15.244Z,100.00
2022-09-28T10:30:17.137Z,100.00
2022-09-28T10:33:30.103Z,100.00
2022-09-28T10:36:21.521Z,100.00
2022-09-28T10:39:27.030Z,100.00
2022-09-28T10:42:24.599Z,100.00
2022-09-28T10:45:22.211Z,100.00
2022-09-28T10:48:21.549Z,100.00
2022-09-28T10:51:12.591Z,100.00
2022-09-28T10:54:04.315Z,100.00
2022-09-28T10:56:57.676Z,100.00
2022-09-28T10:59:49.180Z,100.00
2022-09-28T11:02:41.983Z,100.00
2022-09-28T11:05:35.278Z,100.00
2022-09-28T11:08:30.324Z,100.00
2022-09-28T11:11:21.675Z,100.00
2022-09-28T11:14:27.124Z,100.00
2022-09-28T11:17:26.562Z,100.00
2022-09-28T11:20:31.439Z,100.00
2022-09-28T11:23:31.067Z,100.00
2022-09-28T11:26:22.890Z,98.88
2022-09-28T11:29:23.332Z,96.10
2022-09-28T11:32:16.109Z,97.35
2022-09-28T11:35:08.265Z,97.24
2022-09-28T11:38:18.753Z,94.12
2022-09-28T11:41:25.686Z,91.05
2022-09-28T11:44:32.541Z,91.91
2022-09-28T11:47:48.165Z,91.71
2022-09-28T11:50:48.580Z,92.69
2022-09-28T11:53:43.992Z,94.56
2022-09-28T11:56:40.734Z,94.80
2022-09-28T11:59:35.606Z,94.40
2022-09-28T12:02:34.632Z,92.81
2022-09-28T12:05:30.017Z,91.53
2022-09-28T12:08:27.318Z,92.18
2022-09-28T12:11:22.945Z,93.45
2022-09-28T12:14:21.654Z,96.10
2022-09-28T12:17:22.368Z,97.69
2022-09-28T12:20:20.687Z,98.62
2022-09-28T12:23:16.700Z,99.31
2022-09-28T12:26:24.322Z,99.50
2022-09-28T12:29:20.475Z,100.00
2022-09-28T12:32:25.070Z,100.00
2022-09-28T12:35:25.352Z,100.00
2022-09-28T12:38:34.206Z,100.00
2022-09-28T12:41:33.030Z,99.02
2022-09-28T12:44:42.592Z,96.30
2022-09-28T12:48:03.173Z,93.30
2022-09-28T12:51:05.463Z,93.17
2022-09-28T12:54:05.265Z,93.58
2022-09-28T12:57:07.735Z,92.06
2022-09-28T13:00:05.393Z,90.96
2022-09-28T13:03:13.817Z,90.43
2022-09-28T13:06:25.822Z,89.70
2022-09-28T13:09:21.728Z,88.75
2022-09-28T13:12:26.394Z,87.00
2022-09-28T13:15:37.070Z,89.80
2022-09-28T13:18:34.761Z,87.33
2022-09-28T13:21:34.700Z,88.01
2022-09-28T13:24:33.598Z,87.82
2022-09-28T13:27:32.351Z,88.27
2022-09-28T13:30:25.983Z,86.00
2022-09-28T13:33:25.877Z,85.68
2022-09-28T13:36:38.119Z,86.55
2022-09-28T13:39:39.118Z,86.39
2022-09-28T13:43:00.031Z,83.26
2022-09-28T13:45:56.718Z,80.06
2022-09-28T13:49:00.681Z,81.07
2022-09-28T13:52:05.415Z,83.12
2022-09-28T13:55:13.474Z,83.13
2022-09-28T13:58:15.835Z,80.28
2022-09-28T14:01:12.567Z,81.17
2022-09-28T14:04:17.580Z,81.86
2022-09-28T14:07:16.494Z,82.74
2022-09-28T14:10:21.873Z,75.98
2022-09-28T14:13:13.318Z,70.79
2022-09-28T14:16:23.073Z,74.35
2022-09-28T14:19:20.224Z,76.25
2022-09-28T14:22:25.177Z,76.58
2022-09-28T14:25:23.588Z,77.64
2022-09-28T14:28:34.883Z,74.93
2022-09-28T14:31:28.425Z,71.45
2022-09-28T14:34:36.437Z,71.69
2022-09-28T14:37:54.312Z,74.94
2022-09-28T14:41:13.710Z,76.57
2022-09-28T14:44:09.799Z,74.50
2022-09-28T14:47:27.186Z,74.33
2022-09-28T14:50:25.816Z,76.02
2022-09-28T14:53:23.864Z,76.07
2022-09-28T14:56:15.948Z,75.47
2022-09-28T14:59:11.858Z,75.48
2022-09-28T15:02:09.756Z,73.04
2022-09-28T15:05:14.252Z,75.84
2022-09-28T15:08:08.117Z,76.58
2022-09-28T15:11:01.993Z,75.50
2022-09-28T15:14:06.633Z,77.02
2022-09-28T15:16:59.655Z,77.65
2022-09-28T15:20:01.649Z,78.29
2022-09-28T15:22:57.484Z,78.99
2022-09-28T15:25:54.457Z,80.68
2022-09-28T15:28:46.005Z,80.11
2022-09-28T15:31:37.538Z,80.21
2022-09-28T15:34:48.859Z,80.42
2022-09-28T15:37:40.780Z,81.17
2022-09-28T15:40:36.723Z,81.57
2022-09-28T15:43:32.812Z,82.60
2022-09-28T15:46:26.061Z,83.53
2022-09-28T15:49:25.576Z,84.68
2022-09-28T15:52:27.392Z,85.15
2022-09-28T15:55:22.745Z,85.29
2022-09-28T15:58:19.648Z,85.34
2022-09-28T16:01:27.035Z,85.60
2022-09-28T16:04:39.480Z,86.04
2022-09-28T16:07:35.748Z,86.46
2022-09-28T16:10:33.727Z,86.60
2022-09-28T16:13:25.102Z,86.01
2022-09-28T16:16:17.845Z,87.18
2022-09-28T16:19:24.399Z,87.54
2022-09-28T16:22:24.463Z,88.50
2022-09-28T16:25:22.989Z,90.20
2022-09-28T16:28:29.546Z,91.68
2022-09-28T16:31:33.613Z,93.09
2022-09-28T16:34:28.608Z,95.67
2022-09-28T16:37:32.641Z,95.72
2022-09-28T16:40:23.983Z,96.39
2022-09-28T16:43:26.519Z,97.73
2022-09-28T16:46:18.891Z,98.82
2022-09-28T16:49:18.482Z,100.00
2022-09-28T16:52:12.903Z,100.00
2022-09-28T16:55:39.562Z,100.00
2022-09-28T16:58:31.996Z,100.00
2022-09-28T17:01:23.998Z,100.00
2022-09-28T17:04:15.458Z,100.00
2022-09-28T17:07:07.042Z,100.00
2022-09-28T17:09:59.790Z,100.00
2022-09-28T17:12:52.043Z,100.00
2022-09-28T17:15:44.104Z,100.00
2022-09-28T17:18:39.038Z,100.00
2022-09-28T17:21:30.134Z,100.00
2022-09-28T17:24:21.895Z,100.00
2022-09-28T17:27:20.929Z,100.00
2022-09-28T17:30:13.970Z,100.00
2022-09-28T17:33:05.457Z,100.00
2022-09-28T17:36:01.427Z,100.00
2022-09-28T17:38:52.728Z,100.00
2022-09-28T17:41:44.557Z,100.00
2022-09-28T17:44:36.958Z,100.00
2022-09-28T17:47:30.999Z,100.00
2022-09-28T17:50:27.921Z,100.00
2022-09-28T17:53:19.653Z,100.00
2022-09-28T17:56:12.035Z,100.00
2022-09-28T17:59:06.082Z,100.00
2022-09-28T18:02:02.188Z,100.00
2022-09-28T18:04:54.099Z,100.00
2022-09-28T18:07:47.737Z,100.00
2022-09-28T18:10:38.995Z,100.00
2022-09-28T18:13:30.534Z,100.00
2022-09-28T18:16:22.996Z,100.00
2022-09-28T18:19:16.525Z,100.00
2022-09-28T18:22:07.533Z,100.00
2022-09-28T18:24:59.160Z,100.00
2022-09-28T18:27:53.028Z,100.00
2022-09-28T18:30:46.358Z,100.00
2022-09-28T18:33:38.361Z,100.00
2022-09-28T18:36:32.131Z,100.00
2022-09-28T18:39:26.461Z,100.00
2022-09-28T18:42:19.283Z,100.00
2022-09-28T18:45:12.041Z,100.00
2022-09-28T18:48:03.341Z,100.00
2022-09-28T18:50:54.505Z,100.00
2022-09-28T18:53:47.745Z,100.00
2022-09-28T18:56:39.383Z,100.00
2022-09-28T18:59:30.752Z,100.00
2022-09-28T19:02:22.374Z,100.00
2022-09-28T19:05:13.748Z,100.00
2022-09-28T19:08:05.282Z,100.00
2022-09-28T19:11:06.788Z,100.00
2022-09-28T19:13:58.404Z,100.00
2022-09-28T19:16:50.554Z,100.00
2022-09-28T19:19:42.628Z,100.00
2022-09-28T19:22:34.372Z,100.00
2022-09-28T19:25:26.108Z,100.00
2022-09-28T19:28:19.275Z,100.00
2022-09-28T19:31:12.407Z,100.00
2022-09-28T19:34:04.030Z,100.00
2022-09-28T19:36:55.302Z,100.00
2022-09-28T19:39:47.026Z,100.00
2022-09-28T19:42:39.578Z,100.00
2022-09-28T19:45:32.215Z,100.00
2022-09-28T19:48:27.108Z,100.00
2022-09-28T19:51:19.009Z,100.00
2022-09-28T19:54:11.286Z,100.00
2022-09-28T19:57:07.906Z,100.00
2022-09-28T20:00:02.740Z,100.00
2022-09-28T20:02:56.341Z,100.00
2022-09-28T20:05:49.264Z,100.00
2022-09-28T20:08:42.647Z,100.00
2022-09-28T20:11:35.828Z,100.00
2022-09-28T20:14:32.869Z,100.00
2022-09-28T20:17:27.601Z,100.00
2022-09-28T20:20:20.453Z,100.00
2022-09-28T20:23:11.902Z,100.00
2022-09-28T20:26:04.676Z,100.00
2022-09-28T20:28:56.678Z,100.00
2022-09-28T20:31:47.971Z,100.00
2022-09-28T20:34:39.533Z,100.00
2022-09-28T20:37:32.993Z,100.00
2022-09-28T20:40:24.680Z,100.00
2022-09-28T20:43:16.169Z,100.00
2022-09-28T20:46:08.864Z,100.00
2022-09-28T20:49:00.346Z,100.00
2022-09-28T20:51:51.763Z,100.00
2022-09-28T20:54:44.632Z,100.00
2022-09-28T20:57:36.259Z,100.00
2022-09-28T21:00:27.892Z,100.00
2022-09-28T21:03:19.351Z,100.00
2022-09-28T21:06:12.366Z,100.00
2022-09-28T21:09:04.933Z,100.00
2022-09-28T21:11:57.894Z,100.00
2022-09-28T21:14:49.128Z,100.00
2022-09-28T21:17:40.589Z,100.00
2022-09-28T21:20:32.331Z,100.00
2022-09-28T21:23:25.162Z,100.00
2022-09-28T21:26:24.805Z,100.00
2022-09-28T21:29:17.896Z,100.00
2022-09-28T21:32:09.214Z,100.00
2022-09-28T21:35:00.257Z,100.00
2022-09-28T21:37:51.885Z,100.00
2022-09-28T21:40:43.209Z,100.00
2022-09-28T21:43:34.629Z,100.00
2022-09-28T21:46:33.496Z,100.00
2022-09-28T21:49:49.788Z,100.00
2022-09-28T21:52:41.246Z,100.00
2022-09-28T21:55:32.673Z,100.00
2022-09-28T21:58:25.733Z,100.00
2022-09-28T22:01:19.509Z,100.00
2022-09-28T22:04:12.231Z,100.00
2022-09-28T22:07:03.586Z,100.00
2022-09-28T22:09:54.842Z,100.00
2022-09-28T22:12:46.243Z,100.00
2022-09-28T22:15:37.793Z,100.00
2022-09-28T22:18:30.765Z,100.00
2022-09-28T22:21:24.954Z,100.00
2022-09-28T22:24:16.259Z,100.00
2022-09-28T22:27:07.459Z,100.00
2022-09-28T22:29:59.040Z,100.00
2022-09-28T22:32:50.467Z,100.00
2022-09-28T22:35:41.814Z,100.00
2022-09-28T22:38:35.180Z,100.00
2022-09-28T22:41:26.970Z,100.00
2022-09-28T22:44:18.335Z,100.00
2022-09-28T22:47:09.629Z,100.00
2022-09-28T22:50:01.021Z,100.00
2022-09-28T22:52:52.327Z,100.00
2022-09-28T22:55:45.404Z,100.00
2022-09-28T22:58:38.375Z,100.00
2022-09-28T23:01:31.031Z,100.00
2022-09-28T23:04:22.401Z,100.00
2022-09-28T23:07:13.734Z,100.00
2022-09-28T23:10:05.588Z,100.00
2022-09-28T23:12:58.340Z,100.00
2022-09-28T23:15:56.734Z,100.00
2022-09-28T23:18:49.130Z,100.00
2022-09-28T23:21:40.333Z,100.00
2022-09-28T23:24:31.980Z,100.00
2022-09-28T23:27:23.543Z,100.00
2022-09-28T23:30:17.408Z,100.00
2022-09-28T23:33:08.545Z,100.00
2022-09-28T23:36:02.001Z,100.00
2022-09-28T23:38:53.825Z,100.00
2022-09-28T23:41:45.241Z,100.00
2022-09-28T23:44:36.758Z,100.00
2022-09-28T23:47:29.529Z,100.00
2022-09-28T23:50:20.951Z,100.00
2022-09-28T23:53:14.125Z,100.00
2022-09-28T23:56:05.687Z,100.00
2022-09-28T23:58:56.944Z,100.00
